メインページ
METAR-TAF:

METAR-TAF

空港 :

Holland, ミシガン州, アメリカ合衆国

緯度: 42-44-46N, 経度: 086-05-48W, 海抜: 209m

現時点の気象観測

当レポートは31分前の00:53(UTC)に作成
南西の風 11kt
気温 7°C
湿度 61%
気圧 1013 hPa
視程: 16.1km
晴天

METAR: KBIV 240053Z AUTO 23011KT 10SM CLR 07/00 A2990 RMK AO2 SLP129 T00720000

時間: 20:24 (01:24 UTC)


TAF: 見つかりません

4,000以上の空港の気象観測と天気予報(METAR報とTAF報)

利用可能な観測所は地図上に黄色い丸と赤い丸で示す。

丸の上にカーソルを重ねると観測所名を参照できる。

次にクリックすると気象観測と天気予報を参照できる。

マップの切り替え:黒色「×」印の緑ボタンをクリックして拡大、「-」印の緑ボタンをクリックして縮小、緑色の三角印をクリックして隣りの地図に切り替え


METAR-TAF: